Prairie Rose, North Dakota
Current Conditions -  °F | °C
As of 4:53 AM on Friday 24 Oct 2014 (Local Time) from KFAR Reporting Station
Clear Clear  
Wind Chill:   Ceiling: Unl
Heat Index:   Visibility: 10mi
Dew Point:   Wind: 8mph
Humidity: 80%   Direction: 160°SSE
Pressure: 29.79"   Gusts: NA
Location:  46.8079°N, 96.8643°W
Report Text: KFAR 240953Z 16007KT 10SM CLR 08/05 A2979 RMK AO2 SLP091 T00830050
Loading
Personal Weather Stations






























Interactive Weather Map
Tropical Storm Tracking
New forecast layout! Learn more

10-Day Weather Forecast

Advertisements
Track Severe Weather on mobile